createdAt,value
2018-11-03T00:00:20.106Z,47.23
2018-11-03T00:02:48.574Z,42.80
2018-11-03T00:05:17.431Z,47.90
2018-11-03T00:07:46.564Z,45.53
2018-11-03T00:10:15.035Z,45.20
2018-11-03T00:12:43.474Z,46.67
2018-11-03T00:15:11.983Z,48.77
2018-11-03T00:17:40.477Z,45.30
2018-11-03T00:20:09.031Z,51.03
2018-11-03T00:22:37.537Z,49.83
2018-11-03T00:25:07.172Z,50.80
2018-11-03T00:27:35.619Z,47.40
2018-11-03T00:30:05.618Z,44.47
2018-11-03T00:32:34.126Z,50.03
2018-11-03T00:35:02.582Z,45.53
2018-11-03T00:37:31.061Z,54.03
2018-11-03T00:39:59.551Z,49.93
2018-11-03T00:42:28.062Z,43.67
2018-11-03T00:44:56.524Z,47.17
2018-11-03T00:47:24.982Z,47.40
2018-11-03T00:49:53.421Z,43.83
2018-11-03T00:52:21.861Z,45.47
2018-11-03T00:54:53.399Z,44.43
2018-11-03T00:57:21.845Z,43.60
2018-11-03T00:59:50.335Z,40.40
2018-11-03T01:02:18.839Z,39.37
2018-11-03T01:04:47.319Z,41.10
2018-11-03T01:07:15.899Z,46.33
2018-11-03T01:09:44.412Z,44.17
2018-11-03T01:12:12.879Z,47.60
2018-11-03T01:14:41.610Z,44.73
2018-11-03T01:17:10.070Z,53.23
2018-11-03T01:19:38.566Z,54.40
2018-11-03T01:22:07.082Z,63.53
2018-11-03T01:24:35.524Z,62.77
2018-11-03T01:27:03.994Z,63.70
2018-11-03T01:29:32.522Z,64.90
2018-11-03T01:32:00.961Z,72.50
2018-11-03T01:34:29.430Z,72.63
2018-11-03T01:36:58.015Z,65.10
2018-11-03T01:39:26.564Z,70.03
2018-11-03T01:41:55.013Z,73.30
2018-11-03T01:44:23.501Z,58.27
2018-11-03T01:46:51.957Z,57.03
2018-11-03T01:49:20.431Z,59.77
2018-11-03T01:51:48.937Z,63.27
2018-11-03T01:54:17.428Z,61.23
2018-11-03T01:56:45.875Z,54.93
2018-11-03T01:59:14.356Z,60.10
2018-11-03T02:01:42.861Z,61.13
2018-11-03T02:04:11.341Z,66.40
2018-11-03T02:06:39.791Z,66.10
2018-11-03T02:09:09.499Z,58.43
2018-11-03T02:11:38.116Z,65.13
2018-11-03T02:14:06.798Z,67.23
2018-11-03T02:16:35.211Z,69.47
2018-11-03T02:19:03.746Z,68.57
2018-11-03T02:21:32.229Z,72.70
2018-11-03T02:24:00.675Z,76.77
2018-11-03T02:26:29.145Z,76.60
2018-11-03T02:28:57.595Z,74.80
2018-11-03T02:31:26.050Z,77.67
2018-11-03T02:33:54.549Z,84.70
2018-11-03T02:36:22.976Z,88.87
2018-11-03T02:38:51.435Z,95.87
2018-11-03T02:41:19.945Z,99.20
2018-11-03T02:43:48.372Z,103.37
2018-11-03T02:46:16.929Z,105.07
2018-11-03T02:48:45.668Z,101.63
2018-11-03T02:51:14.189Z,100.03
2018-11-03T02:53:42.951Z,95.00
2018-11-03T02:56:11.414Z,95.87
2018-11-03T02:58:39.866Z,95.47
2018-11-03T03:01:08.526Z,96.47
2018-11-03T03:03:36.971Z,97.77
2018-11-03T03:06:05.475Z,97.83
2018-11-03T03:08:34.066Z,109.83
2018-11-03T03:11:02.539Z,92.77
2018-11-03T03:13:31.089Z,98.23
2018-11-03T03:15:59.708Z,99.00
2018-11-03T03:18:28.151Z,100.23
2018-11-03T03:20:56.611Z,110.20
2018-11-03T03:23:25.072Z,101.97
2018-11-03T03:25:53.626Z,102.60
2018-11-03T03:28:22.075Z,98.53
2018-11-03T03:30:50.553Z,106.40
2018-11-03T03:33:19.269Z,97.03
2018-11-03T03:35:47.711Z,93.63
2018-11-03T03:38:16.195Z,100.90
2018-11-03T03:40:44.632Z,109.07
2018-11-03T03:43:13.122Z,104.23
2018-11-03T03:45:41.650Z,98.67
2018-11-03T03:48:10.145Z,103.40
2018-11-03T03:50:38.726Z,101.00
2018-11-03T03:53:07.196Z,105.33
2018-11-03T03:55:35.669Z,105.93
2018-11-03T03:58:04.152Z,94.20
2018-11-03T04:00:32.589Z,95.90
2018-11-03T04:03:01.065Z,99.60
2018-11-03T04:05:29.707Z,112.87
2018-11-03T04:07:58.151Z,118.97
2018-11-03T04:10:26.597Z,125.77
2018-11-03T04:12:55.135Z,111.43
2018-11-03T04:15:23.589Z,116.43
2018-11-03T04:17:52.096Z,124.27
2018-11-03T04:20:20.612Z,110.73
2018-11-03T04:22:49.071Z,115.43
2018-11-03T04:25:17.534Z,110.47
2018-11-03T04:27:46.026Z,113.17
2018-11-03T04:30:14.696Z,107.40
2018-11-03T04:32:43.855Z,109.67
2018-11-03T04:35:12.362Z,95.67
2018-11-03T04:37:41.120Z,91.53
2018-11-03T04:40:11.392Z,98.17
2018-11-03T04:42:40.042Z,103.77
2018-11-03T04:45:09.081Z,93.60
2018-11-03T04:47:37.740Z,95.43
2018-11-03T04:50:06.742Z,98.77
2018-11-03T04:52:35.262Z,109.93
2018-11-03T04:55:04.031Z,98.90
2018-11-03T04:57:32.435Z,87.13
2018-11-03T05:00:00.891Z,101.40
2018-11-03T05:02:29.395Z,102.80
2018-11-03T05:04:57.882Z,92.77
2018-11-03T05:07:26.396Z,94.40
2018-11-03T05:09:54.937Z,86.27
2018-11-03T05:12:23.467Z,96.10
2018-11-03T05:14:51.930Z,107.60
2018-11-03T05:17:20.695Z,106.37
2018-11-03T05:19:49.299Z,103.90
2018-11-03T05:22:17.788Z,108.60
2018-11-03T05:24:46.225Z,117.20
2018-11-03T05:27:14.755Z,116.57
2018-11-03T05:29:43.206Z,119.50
2018-11-03T05:32:11.632Z,127.77
2018-11-03T05:34:40.175Z,132.10
2018-11-03T05:37:08.652Z,157.03
2018-11-03T05:39:37.109Z,121.80
2018-11-03T05:42:06.289Z,124.87
2018-11-03T05:44:34.814Z,139.50
2018-11-03T05:47:03.266Z,134.33
2018-11-03T05:49:31.743Z,128.67
2018-11-03T05:52:00.258Z,128.40
2018-11-03T05:54:29.039Z,114.73
2018-11-03T05:56:57.565Z,112.93
2018-11-03T05:59:26.200Z,123.27
2018-11-03T06:01:54.706Z,117.37
2018-11-03T06:04:23.160Z,96.17
2018-11-03T06:06:51.583Z,100.27
2018-11-03T06:09:20.406Z,106.73
2018-11-03T06:11:48.835Z,116.73
2018-11-03T06:14:17.262Z,108.37
2018-11-03T06:16:45.765Z,115.67
2018-11-03T06:19:17.282Z,116.53
2018-11-03T06:21:45.745Z,111.07
2018-11-03T06:24:17.229Z,118.37
2018-11-03T06:26:45.729Z,113.63
2018-11-03T06:29:17.182Z,114.13
2018-11-03T06:31:45.733Z,120.80
2018-11-03T06:34:14.229Z,128.30
2018-11-03T06:36:42.710Z,114.93
2018-11-03T06:39:11.300Z,116.40
2018-11-03T06:41:39.772Z,118.07
2018-11-03T06:44:08.819Z,118.07
2018-11-03T06:46:37.413Z,120.23
2018-11-03T06:49:10.330Z,114.43
2018-11-03T06:51:38.847Z,102.47
2018-11-03T06:54:07.417Z,99.53
2018-11-03T06:56:36.039Z,115.73
2018-11-03T06:59:04.658Z,117.37
2018-11-03T07:01:33.240Z,122.97
2018-11-03T07:04:01.734Z,106.97
2018-11-03T07:06:30.327Z,119.67
2018-11-03T07:08:58.997Z,104.13
2018-11-03T07:11:27.590Z,113.13
2018-11-03T07:13:56.072Z,109.40
2018-11-03T07:16:24.739Z,109.37
2018-11-03T07:19:00.108Z,101.03
2018-11-03T07:21:28.812Z,93.63
2018-11-03T07:23:57.271Z,94.77
2018-11-03T07:26:25.929Z,86.47
2018-11-03T07:28:54.606Z,81.73
2018-11-03T07:31:23.084Z,84.53
2018-11-03T07:33:51.666Z,84.57
2018-11-03T07:36:20.225Z,75.90
2018-11-03T07:38:48.933Z,75.87
2018-11-03T07:41:17.483Z,75.63
2018-11-03T07:43:45.893Z,85.00
2018-11-03T07:46:14.310Z,71.53
2018-11-03T07:48:42.902Z,72.40
2018-11-03T07:51:11.337Z,73.90
2018-11-03T07:53:39.886Z,70.80
2018-11-03T07:56:08.497Z,66.90
2018-11-03T07:58:37.075Z,64.80
2018-11-03T08:01:05.666Z,66.93
2018-11-03T08:03:34.239Z,71.00
2018-11-03T08:06:02.829Z,59.93
2018-11-03T08:08:31.322Z,61.47
2018-11-03T08:10:59.884Z,69.33
2018-11-03T08:13:28.577Z,70.80
2018-11-03T08:15:57.049Z,70.17
2018-11-03T08:18:25.539Z,66.87
2018-11-03T08:20:54.005Z,68.90
2018-11-03T08:23:23.010Z,64.77
2018-11-03T08:25:51.535Z,70.10
2018-11-03T08:28:20.058Z,66.13
2018-11-03T08:30:48.569Z,62.07
2018-11-03T08:33:17.034Z,70.37
2018-11-03T08:35:45.491Z,63.63
2018-11-03T08:38:14.075Z,68.00
2018-11-03T08:40:42.504Z,65.90
2018-11-03T08:43:11.046Z,53.47
2018-11-03T08:45:39.503Z,52.07
2018-11-03T08:48:07.993Z,46.10
2018-11-03T08:50:36.488Z,53.60
2018-11-03T08:53:05.225Z,47.47
2018-11-03T08:55:33.738Z,48.87
2018-11-03T08:58:02.168Z,51.70
2018-11-03T09:00:30.653Z,44.53
2018-11-03T09:02:59.071Z,47.23
2018-11-03T09:05:27.526Z,46.97
2018-11-03T09:07:56.139Z,46.67
2018-11-03T09:10:24.618Z,46.03
2018-11-03T09:12:53.052Z,46.83
2018-11-03T09:15:21.799Z,46.17
2018-11-03T09:17:50.161Z,48.93
2018-11-03T09:20:18.608Z,44.63
2018-11-03T09:22:47.171Z,49.13
2018-11-03T09:25:16.467Z,49.63
2018-11-03T09:27:45.510Z,52.47
2018-11-03T09:30:16.325Z,53.77
2018-11-03T09:32:44.811Z,54.90
2018-11-03T09:35:14.254Z,52.23
2018-11-03T09:37:42.663Z,42.93
2018-11-03T09:40:13.632Z,39.63
2018-11-03T09:42:42.966Z,40.83
2018-11-03T09:45:12.210Z,45.17
2018-11-03T09:47:41.200Z,39.70
2018-11-03T09:50:11.291Z,39.87
2018-11-03T09:52:40.174Z,42.87
2018-11-03T09:55:11.214Z,38.20
2018-11-03T09:57:39.802Z,41.10
2018-11-03T10:00:14.248Z,41.80
2018-11-03T10:02:42.974Z,41.40
2018-11-03T10:05:12.654Z,37.37
2018-11-03T10:07:41.525Z,37.70
2018-11-03T10:10:13.066Z,38.13
2018-11-03T10:12:41.981Z,33.70
2018-11-03T10:15:10.994Z,36.43
2018-11-03T10:17:39.483Z,40.20
2018-11-03T10:20:08.828Z,40.17
2018-11-03T10:22:37.617Z,39.27
2018-11-03T10:25:09.312Z,43.73
2018-11-03T10:27:37.806Z,43.90
2018-11-03T10:30:07.702Z,43.60
2018-11-03T10:32:36.462Z,38.80
2018-11-03T10:35:06.717Z,36.10
2018-11-03T10:37:35.256Z,42.03
2018-11-03T10:40:04.189Z,39.17
2018-11-03T10:42:32.672Z,39.73
2018-11-03T10:45:01.149Z,35.30
2018-11-03T10:47:29.586Z,35.50
2018-11-03T10:49:58.097Z,40.07
2018-11-03T10:52:26.698Z,35.57
2018-11-03T10:54:55.281Z,37.97
2018-11-03T10:57:23.809Z,37.03
2018-11-03T10:59:52.330Z,39.40
2018-11-03T11:02:25.119Z,38.77
2018-11-03T11:04:57.799Z,39.90
2018-11-03T11:07:30.469Z,38.00
2018-11-03T11:10:03.131Z,36.13
2018-11-03T11:12:36.135Z,38.97
2018-11-03T11:15:07.689Z,39.63
2018-11-03T11:17:36.376Z,38.03
2018-11-03T11:20:06.295Z,38.93
2018-11-03T11:22:34.781Z,35.80
2018-11-03T11:25:03.764Z,36.80
2018-11-03T11:27:32.241Z,36.43
2018-11-03T11:30:00.818Z,37.67
2018-11-03T11:32:29.330Z,34.03
2018-11-03T11:34:57.771Z,36.73
2018-11-03T11:37:26.432Z,34.77
2018-11-03T11:39:54.861Z,29.97
2018-11-03T11:42:23.320Z,26.17
2018-11-03T11:44:51.771Z,24.80
2018-11-03T11:47:20.275Z,26.37
2018-11-03T11:49:48.718Z,23.17
2018-11-03T11:52:17.239Z,18.50
2018-11-03T11:54:45.789Z,18.77
2018-11-03T11:57:14.188Z,20.23
2018-11-03T11:59:43.042Z,20.10
2018-11-03T12:02:11.719Z,17.20
2018-11-03T12:04:40.158Z,17.30
2018-11-03T12:07:08.711Z,15.93
2018-11-03T12:09:37.171Z,19.47
2018-11-03T12:12:05.702Z,16.60
2018-11-03T12:14:34.251Z,17.20
2018-11-03T12:17:02.747Z,16.17
2018-11-03T12:19:31.299Z,15.97
2018-11-03T12:21:59.782Z,19.97
2018-11-03T12:24:28.281Z,19.30
2018-11-03T12:26:56.720Z,17.27
2018-11-03T12:29:25.215Z,17.20
2018-11-03T12:31:53.832Z,16.90
2018-11-03T12:34:22.422Z,17.90
2018-11-03T12:36:50.924Z,19.77
2018-11-03T12:39:19.579Z,16.50
2018-11-03T12:41:48.022Z,19.40
2018-11-03T12:44:16.536Z,16.57
2018-11-03T12:46:45.212Z,17.53
2018-11-03T12:49:13.680Z,19.90
2018-11-03T12:51:42.173Z,18.27
2018-11-03T12:54:10.665Z,23.83
2018-11-03T12:56:39.209Z,20.97
2018-11-03T12:59:07.755Z,19.97
2018-11-03T13:01:36.211Z,18.63
2018-11-03T13:04:04.950Z,23.93
2018-11-03T13:06:33.459Z,18.13
2018-11-03T13:09:02.042Z,18.97
2018-11-03T13:11:30.521Z,21.30
2018-11-03T13:13:58.979Z,20.70
2018-11-03T13:16:27.456Z,21.90
2018-11-03T13:18:55.956Z,20.70
2018-11-03T13:21:24.649Z,22.07
2018-11-03T13:23:53.101Z,21.43
2018-11-03T13:26:21.589Z,23.60
2018-11-03T13:28:50.265Z,24.20
2018-11-03T13:31:19.077Z,24.83
2018-11-03T13:33:47.733Z,20.90
2018-11-03T13:36:16.163Z,22.73
2018-11-03T13:38:45.043Z,22.07
2018-11-03T13:41:13.563Z,21.40
2018-11-03T13:43:42.102Z,21.43
2018-11-03T13:46:10.669Z,27.40
2018-11-03T13:48:39.260Z,27.43
2018-11-03T13:51:07.782Z,23.60
2018-11-03T13:53:36.303Z,29.53
2018-11-03T13:56:04.899Z,27.83
2018-11-03T13:58:35.633Z,22.83
2018-11-03T14:01:04.213Z,24.73
2018-11-03T14:03:32.801Z,24.43
2018-11-03T14:06:01.367Z,26.70
2018-11-03T14:08:29.847Z,25.97
2018-11-03T14:10:58.444Z,28.00
2018-11-03T14:13:27.002Z,30.03
2018-11-03T14:15:55.492Z,30.03
2018-11-03T14:18:23.963Z,38.80
2018-11-03T14:20:52.569Z,45.83
2018-11-03T14:23:21.194Z,42.30
2018-11-03T14:25:49.712Z,37.83
2018-11-03T14:28:18.308Z,36.83
2018-11-03T14:30:46.822Z,38.80
2018-11-03T14:33:15.385Z,37.33
2018-11-03T14:35:43.927Z,40.30
2018-11-03T14:38:12.411Z,42.60
2018-11-03T14:40:41.315Z,44.07
2018-11-03T14:43:09.842Z,48.20
2018-11-03T14:45:38.352Z,50.83
2018-11-03T14:48:07.018Z,48.63
2018-11-03T14:50:35.856Z,48.00
2018-11-03T14:53:04.439Z,49.37
2018-11-03T14:55:47.401Z,53.87
2018-11-03T14:58:16.013Z,54.37
2018-11-03T15:00:44.489Z,56.70
2018-11-03T15:03:13.098Z,59.53
2018-11-03T15:05:41.671Z,59.37
2018-11-03T15:08:10.147Z,58.30
2018-11-03T15:10:46.277Z,59.53
2018-11-03T15:13:15.427Z,57.80
2018-11-03T15:15:43.935Z,60.53
2018-11-03T15:18:12.460Z,67.90
2018-11-03T15:20:40.980Z,56.77
2018-11-03T15:23:09.465Z,61.50
2018-11-03T15:25:37.980Z,70.27
2018-11-03T15:28:06.872Z,66.10
2018-11-03T15:30:35.327Z,68.03
2018-11-03T15:33:03.892Z,72.40
2018-11-03T15:35:32.407Z,69.17
2018-11-03T15:38:00.929Z,69.50
2018-11-03T15:40:29.440Z,64.03
2018-11-03T15:42:58.027Z,70.50
2018-11-03T15:45:26.590Z,72.17
2018-11-03T15:47:55.151Z,73.30
2018-11-03T15:50:23.663Z,74.17
2018-11-03T15:52:52.115Z,78.07
2018-11-03T15:55:20.601Z,77.50
2018-11-03T15:57:49.095Z,68.33
2018-11-03T16:00:19.114Z,76.57
2018-11-03T16:02:48.017Z,76.00
2018-11-03T16:05:16.886Z,78.67
2018-11-03T16:07:46.169Z,78.80
2018-11-03T16:10:14.788Z,77.97
2018-11-03T16:12:43.514Z,71.93
2018-11-03T16:15:12.925Z,69.77
2018-11-03T16:17:41.936Z,74.37
2018-11-03T16:20:11.778Z,72.17
2018-11-03T16:22:40.455Z,75.23
2018-11-03T16:25:09.543Z,75.53
2018-11-03T16:27:38.940Z,73.97
2018-11-03T16:30:13.620Z,73.47
2018-11-03T16:32:42.317Z,74.40
2018-11-03T16:35:10.841Z,74.73
2018-11-03T16:37:40.067Z,75.23
2018-11-03T16:40:10.158Z,76.03
2018-11-03T16:42:38.612Z,70.90
2018-11-03T16:45:08.550Z,75.53
2018-11-03T16:47:37.184Z,70.87
2018-11-03T16:50:07.340Z,71.17
2018-11-03T16:52:42.984Z,73.77
2018-11-03T16:55:12.473Z,69.77
2018-11-03T16:57:41.183Z,74.80
2018-11-03T17:00:12.037Z,72.87
2018-11-03T17:02:41.015Z,69.47
2018-11-03T17:05:10.889Z,73.63
2018-11-03T17:07:39.394Z,76.47
2018-11-03T17:10:13.148Z,73.60
2018-11-03T17:12:43.147Z,76.37
2018-11-03T17:15:12.030Z,81.57
2018-11-03T17:17:40.567Z,85.70
2018-11-03T17:20:09.676Z,80.63
2018-11-03T17:22:38.572Z,81.93
2018-11-03T17:25:09.001Z,79.97
2018-11-03T17:27:37.450Z,92.73
2018-11-03T17:30:07.560Z,87.40
2018-11-03T17:32:36.320Z,87.27
2018-11-03T17:35:05.100Z,91.30
2018-11-03T17:37:33.646Z,83.53
2018-11-03T17:40:02.190Z,86.40
2018-11-03T17:42:30.716Z,94.37
2018-11-03T17:44:59.266Z,91.20
2018-11-03T17:47:27.720Z,96.13
2018-11-03T17:49:56.300Z,96.17
2018-11-03T17:52:24.804Z,96.80
2018-11-03T17:54:53.471Z,99.07
2018-11-03T17:57:21.884Z,85.67
2018-11-03T17:59:50.403Z,98.13
2018-11-03T18:02:18.850Z,103.87
2018-11-03T18:04:47.440Z,92.40
2018-11-03T18:07:15.997Z,89.33
2018-11-03T18:09:44.596Z,98.13
2018-11-03T18:12:13.180Z,102.03
2018-11-03T18:14:41.697Z,97.60
2018-11-03T18:17:10.236Z,91.07
2018-11-03T18:19:38.843Z,94.27
2018-11-03T18:22:07.312Z,97.43
2018-11-03T18:24:35.857Z,98.83
2018-11-03T18:27:04.981Z,99.30
2018-11-03T18:29:33.478Z,103.03
2018-11-03T18:32:02.078Z,89.73
2018-11-03T18:34:30.580Z,102.80
2018-11-03T18:36:59.728Z,99.30
2018-11-03T18:39:28.295Z,102.67
2018-11-03T18:41:56.811Z,105.00
2018-11-03T18:44:25.428Z,113.80
2018-11-03T18:46:53.934Z,114.30
2018-11-03T18:49:22.424Z,117.00
2018-11-03T18:51:51.149Z,109.47
2018-11-03T18:54:19.792Z,115.07
2018-11-03T18:56:48.364Z,117.77
2018-11-03T18:59:16.916Z,113.23
2018-11-03T19:01:45.533Z,114.20
2018-11-03T19:04:14.041Z,117.23
2018-11-03T19:06:42.694Z,128.27
2018-11-03T19:09:11.321Z,125.10
2018-11-03T19:11:39.864Z,129.33
2018-11-03T19:14:08.348Z,119.93
2018-11-03T19:16:37.019Z,128.83
2018-11-03T19:19:05.702Z,124.83
2018-11-03T19:21:34.235Z,133.20
2018-11-03T19:24:02.737Z,123.83
2018-11-03T19:26:31.192Z,125.17
2018-11-03T19:28:59.722Z,121.97
2018-11-03T19:31:28.155Z,129.77
2018-11-03T19:33:56.717Z,130.13
2018-11-03T19:36:25.202Z,132.17
2018-11-03T19:38:53.801Z,125.53
2018-11-03T19:41:22.582Z,138.33
2018-11-03T19:43:51.061Z,130.60
2018-11-03T19:46:19.514Z,134.47
2018-11-03T19:48:47.979Z,128.00
2018-11-03T19:51:16.655Z,129.00
2018-11-03T19:53:45.135Z,137.43
2018-11-03T19:56:13.611Z,140.53
2018-11-03T19:58:42.203Z,124.33
2018-11-03T20:01:10.727Z,124.93
2018-11-03T20:03:39.282Z,130.47
2018-11-03T20:06:07.841Z,128.43
2018-11-03T20:08:36.295Z,128.03
2018-11-03T20:11:04.937Z,121.13
2018-11-03T20:13:33.457Z,133.20
2018-11-03T20:16:02.009Z,131.30
2018-11-03T20:18:30.556Z,118.03
2018-11-03T20:20:59.127Z,123.02
2018-11-03T20:23:27.637Z,119.17
2018-11-03T20:26:05.199Z,118.73
2018-11-03T20:28:33.660Z,117.30
2018-11-03T20:31:02.138Z,119.37
2018-11-03T20:33:31.766Z,115.70
2018-11-03T20:36:00.265Z,116.60
2018-11-03T20:38:28.778Z,118.07
2018-11-03T20:40:57.416Z,118.40
2018-11-03T20:43:25.891Z,118.40
2018-11-03T20:45:54.412Z,119.87
2018-11-03T20:48:23.274Z,123.07
2018-11-03T20:50:55.945Z,125.45
2018-11-03T20:53:24.623Z,118.37
2018-11-03T20:55:53.141Z,124.82
2018-11-03T20:58:21.591Z,117.57
2018-11-03T21:00:50.145Z,115.80
2018-11-03T21:03:18.637Z,106.93
2018-11-03T21:05:47.100Z,111.70
2018-11-03T21:08:15.843Z,112.37
2018-11-03T21:10:44.250Z,118.08
2018-11-03T21:13:13.820Z,106.30
2018-11-03T21:15:42.473Z,106.58
2018-11-03T21:18:10.922Z,104.53
2018-11-03T21:20:39.435Z,108.80
2018-11-03T21:23:08.494Z,114.60
2018-11-03T21:25:37.272Z,98.83
2018-11-03T21:28:06.155Z,102.63
2018-11-03T21:30:35.077Z,97.17
2018-11-03T21:33:03.787Z,110.97
2018-11-03T21:35:32.187Z,105.97
2018-11-03T21:38:00.736Z,107.20
2018-11-03T21:40:29.220Z,109.83
2018-11-03T21:42:57.911Z,109.17
2018-11-03T21:45:26.474Z,113.27
2018-11-03T21:47:54.976Z,102.63
2018-11-03T21:50:23.540Z,101.50
2018-11-03T21:52:52.137Z,108.53
2018-11-03T21:55:20.654Z,92.67
2018-11-03T21:57:49.439Z,103.63
2018-11-03T22:00:18.069Z,101.63
2018-11-03T22:02:46.656Z,100.83
2018-11-03T22:05:15.131Z,93.97
2018-11-03T22:07:44.224Z,99.50
2018-11-03T22:10:12.804Z,97.03
2018-11-03T22:12:42.414Z,108.33
2018-11-03T22:15:10.996Z,95.03
2018-11-03T22:17:39.475Z,109.80
2018-11-03T22:20:09.455Z,99.43
2018-11-03T22:22:38.292Z,102.60
2018-11-03T22:25:07.775Z,94.27
2018-11-03T22:27:36.869Z,95.87
2018-11-03T22:30:06.171Z,88.20
2018-11-03T22:32:34.737Z,98.67
2018-11-03T22:35:03.472Z,89.77
2018-11-03T22:37:32.034Z,96.20
2018-11-03T22:40:00.646Z,107.60
2018-11-03T22:42:29.097Z,95.53
2018-11-03T22:44:57.766Z,95.57
2018-11-03T22:47:26.239Z,107.92
2018-11-03T22:49:54.732Z,109.57
2018-11-03T22:52:23.204Z,98.03
2018-11-03T22:54:54.756Z,99.97
2018-11-03T22:57:23.239Z,106.73
2018-11-03T22:59:51.739Z,100.73
2018-11-03T23:02:20.294Z,102.30
2018-11-03T23:04:48.784Z,101.40
2018-11-03T23:07:17.255Z,102.53
2018-11-03T23:09:45.745Z,98.97
2018-11-03T23:12:14.237Z,105.73
2018-11-03T23:14:42.803Z,101.17
2018-11-03T23:17:11.258Z,114.45
2018-11-03T23:19:40.325Z,105.83
2018-11-03T23:22:09.240Z,112.57
2018-11-03T23:24:37.954Z,107.07
2018-11-03T23:27:06.629Z,104.07
2018-11-03T23:29:35.268Z,94.30
2018-11-03T23:32:03.664Z,101.03
2018-11-03T23:34:32.381Z,103.87
2018-11-03T23:37:01.247Z,110.43
2018-11-03T23:39:30.024Z,104.47
2018-11-03T23:41:58.699Z,115.27
2018-11-03T23:44:27.524Z,107.03
2018-11-03T23:46:55.974Z,114.23
2018-11-03T23:49:25.037Z,105.07
2018-11-03T23:51:53.531Z,108.80
2018-11-03T23:54:22.362Z,110.43
2018-11-03T23:56:51.116Z,100.23
2018-11-03T23:59:19.935Z,116.20
